Time;durP1;ratioP1;P1;durP2;ratioP2;P2;SDS_P1;SDS_P2;PMS_P1;PMS_P2;Temp;Humidity;BMP_temperature;BMP_pressure;BME280_temperature;BME280_humidity;BME280_pressure;Samples;Min_cycle;Max_cycle;Signal;HPM_P1;HPM_P2
2021/05/30 00:01:09;;;;;;;4.30;3.30;;;;;;;6.26;91.23;101958.44;5003401;28;20100;-80
2021/05/30 00:03:35;;;;;;;4.63;3.40;;;;;;;6.26;91.13;101961.94;5004711;28;20050;-80
2021/05/30 00:06:02;;;;;;;5.07;3.33;;;;;;;6.18;91.70;101961.78;5011718;28;20479;-80
2021/05/30 00:08:29;;;;;;;5.73;3.50;;;;;;;6.16;91.41;101958.25;4991469;28;20526;-80
2021/05/30 00:10:56;;;;;;;5.80;3.30;;;;;;;6.13;92.17;101966.06;5013758;28;20048;-80
2021/05/30 00:13:23;;;;;;;5.30;3.70;;;;;;;6.13;91.90;101962.53;5004585;28;20091;-80
2021/05/30 00:15:49;;;;;;;4.97;3.53;;;;;;;6.10;91.43;101966.00;5005136;28;20045;-80
2021/05/30 00:18:16;;;;;;;4.77;3.40;;;;;;;6.08;91.30;101958.97;5016182;28;20037;-79
2021/05/30 00:20:42;;;;;;;5.27;3.13;;;;;;;6.00;91.79;101955.31;5015692;28;20049;-80
2021/05/30 00:23:09;;;;;;;5.17;3.50;;;;;;;6.08;91.66;101962.47;5000518;28;20052;-80
2021/05/30 00:25:36;;;;;;;5.67;3.80;;;;;;;6.02;91.29;101964.97;5015277;28;20179;-79
2021/05/30 00:28:03;;;;;;;5.23;3.77;;;;;;;6.06;92.37;101968.56;4984326;28;20049;-80
2021/05/30 00:30:29;;;;;;;3.57;3.20;;;;;;;5.96;93.15;101969.22;5007612;28;20580;-80
2021/05/30 00:32:56;;;;;;;4.40;3.50;;;;;;;5.90;92.51;101962.09;5012736;28;20053;-79
2021/05/30 00:35:23;;;;;;;5.93;3.23;;;;;;;5.87;93.89;101965.53;4998408;28;20048;-80
2021/05/30 00:37:49;;;;;;;4.97;3.40;;;;;;;5.92;92.92;101970.91;5001000;28;20107;-79
2021/05/30 00:40:16;;;;;;;4.80;3.37;;;;;;;5.79;94.43;101963.59;5007866;28;20042;-79
2021/05/30 00:42:43;;;;;;;4.87;3.73;;;;;;;5.79;93.56;101966.22;4999293;28;20502;-80
2021/05/30 00:45:13;;;;;;;4.10;3.30;;;;;;;5.75;93.21;101964.41;4983041;28;20049;-80
2021/05/30 00:47:39;;;;;;;4.70;3.07;;;;;;;5.71;93.04;101965.19;4999629;28;20052;-80
2021/05/30 00:50:08;;;;;;;5.20;3.40;;;;;;;5.76;93.31;101958.31;5000986;28;20076;-79
2021/05/30 00:52:34;;;;;;;3.73;3.23;;;;;;;5.71;93.35;101963.44;4982121;28;20045;-81
2021/05/30 00:55:02;;;;;;;5.73;3.57;;;;;;;5.63;92.97;101965.94;4997944;28;20072;-79
2021/05/30 00:57:29;;;;;;;6.20;3.20;;;;;;;5.65;93.85;101956.38;4981276;28;20052;-78
2021/05/30 00:59:56;;;;;;;5.33;4.00;;;;;;;5.66;93.43;101967.75;4996219;28;20038;-78
2021/05/30 01:02:22;;;;;;;5.77;3.50;;;;;;;5.55;93.80;101962.28;4993782;28;20045;-79
2021/05/30 01:04:49;;;;;;;5.57;3.30;;;;;;;5.49;94.17;101962.16;4998608;28;20037;-78
2021/05/30 01:07:17;;;;;;;5.17;3.90;;;;;;;5.52;94.27;101954.34;4997169;28;20053;-79
2021/05/30 01:09:46;;;;;;;5.13;3.60;;;;;;;5.48;94.01;101949.91;4981673;28;20034;-78
2021/05/30 01:12:13;;;;;;;7.60;4.73;;;;;;;5.49;94.37;101956.91;4998523;28;20111;-78
2021/05/30 01:14:40;;;;;;;4.77;3.53;;;;;;;5.47;94.74;101958.63;4998661;28;20499;-78
2021/05/30 01:17:08;;;;;;;6.30;3.80;;;;;;;5.42;94.79;101960.25;4997799;28;20042;-79
2021/05/30 01:19:36;;;;;;;5.93;4.03;;;;;;;5.42;95.72;101956.75;4999476;28;20140;-79
2021/05/30 01:22:06;;;;;;;4.23;3.70;;;;;;;5.34;95.29;101953.94;4996713;28;20134;-78
2021/05/30 01:24:37;;;;;;;5.60;3.80;;;;;;;5.29;95.51;101953.84;4987030;28;20045;-78
2021/05/30 01:27:04;;;;;;;5.07;3.67;;;;;;;5.30;95.03;101953.00;4994988;28;20045;-78
2021/05/30 01:29:31;;;;;;;5.47;4.10;;;;;;;5.30;95.46;101955.63;4994970;28;20487;-78
2021/05/30 01:31:58;;;;;;;6.03;4.10;;;;;;;5.14;94.94;101953.53;5002856;28;20049;-78
2021/05/30 01:34:25;;;;;;;6.20;4.23;;;;;;;5.17;94.62;101964.06;5012674;28;20092;-76
2021/05/30 01:36:51;;;;;;;6.47;4.03;;;;;;;5.13;95.32;101959.63;4998628;28;20053;-77
2021/05/30 01:39:18;;;;;;;5.40;3.90;;;;;;;5.13;94.92;101963.94;5009827;28;20073;-76
2021/05/30 01:41:45;;;;;;;5.20;3.77;;;;;;;5.13;94.78;101966.56;4999169;28;20041;-77
2021/05/30 01:44:11;;;;;;;6.50;4.13;;;;;;;5.12;93.75;101970.03;4999319;28;20579;-78
2021/05/30 01:46:38;;;;;;;5.57;3.80;;;;;;;5.15;95.76;101972.75;5011182;28;20049;-77
2021/05/30 01:49:05;;;;;;;5.90;4.50;;;;;;;4.97;95.85;101973.22;5009081;28;20519;-77
2021/05/30 01:51:32;;;;;;;6.83;4.37;;;;;;;5.06;94.87;101970.81;4993502;28;20056;-79
2021/05/30 01:54:06;;;;;;;6.07;4.13;;;;;;;4.94;95.51;101974.00;4994143;28;20076;-78
2021/05/30 01:59:19;;;;;;;5.40;3.90;;;;;;;4.87;95.63;101973.81;4997108;28;20060;-78
2021/05/30 02:01:47;;;;;;;5.63;3.97;;;;;;;4.80;95.98;101978.03;5011983;28;20414;-78
2021/05/30 02:04:14;;;;;;;6.73;4.00;;;;;;;4.90;94.91;101984.38;4978066;28;20100;-78
2021/05/30 02:06:42;;;;;;;6.47;3.97;;;;;;;4.78;96.26;101979.72;5011694;28;20045;-77
2021/05/30 02:09:10;;;;;;;6.47;5.00;;;;;;;4.82;95.22;101978.06;4993812;28;20144;-77
2021/05/30 02:11:37;;;;;;;6.07;4.10;;;;;;;4.79;95.59;101981.47;4993600;28;20033;-78
2021/05/30 02:14:04;;;;;;;6.70;4.07;;;;;;;4.71;95.10;101981.31;4993672;28;20045;-77
2021/05/30 02:16:32;;;;;;;5.97;4.13;;;;;;;4.70;95.40;101984.75;5009270;28;20049;-77
2021/05/30 02:18:58;;;;;;;6.50;4.27;;;;;;;4.60;95.52;101979.28;4990361;28;20487;-77
2021/05/30 02:21:26;;;;;;;5.27;3.87;;;;;;;4.62;96.02;101973.22;5002597;28;20049;-77
2021/05/30 02:23:53;;;;;;;9.83;4.80;;;;;;;4.60;96.14;101981.88;5005685;28;20547;-78
2021/05/30 02:26:19;;;;;;;5.50;4.20;;;;;;;4.59;95.97;101977.50;5005719;28;20123;-77
2021/05/30 02:28:46;;;;;;;6.70;3.93;;;;;;;4.67;95.72;101981.19;4975136;28;20046;-77
2021/05/30 02:31:12;;;;;;;6.03;3.70;;;;;;;4.57;95.16;101981.81;5025475;28;20046;-77
2021/05/30 02:33:39;;;;;;;5.13;4.00;;;;;;;4.56;94.55;101974.81;4978665;28;20053;-77
2021/05/30 02:36:06;;;;;;;6.23;4.47;;;;;;;4.50;95.51;101980.78;4991964;28;20095;-77
2021/05/30 02:38:33;;;;;;;4.30;3.60;;;;;;;4.52;95.78;101981.69;4992182;28;20040;-77
2021/05/30 02:40:59;;;;;;;5.83;3.77;;;;;;;4.51;95.38;101978.19;4977626;28;20057;-77
2021/05/30 02:43:26;;;;;;;6.03;3.93;;;;;;;4.52;94.85;101982.56;4995391;28;20045;-76
2021/05/30 02:45:53;;;;;;;7.13;4.07;;;;;;;4.48;95.83;101985.97;5019406;28;20045;-78
2021/05/30 02:48:19;;;;;;;6.60;4.70;;;;;;;4.50;96.17;101984.28;4996508;28;20082;-77
2021/05/30 02:50:57;;;;;;;6.83;4.77;;;;;;;4.49;95.42;101985.13;5030614;28;20037;-77
2021/05/30 02:53:32;;;;;;;7.03;4.40;;;;;;;4.48;96.65;101990.31;5015491;28;20048;-76
2021/05/30 02:56:00;;;;;;;5.63;4.23;;;;;;;4.43;96.00;101991.94;4980780;28;20037;-77
2021/05/30 02:58:29;;;;;;;6.37;3.83;;;;;;;4.40;95.91;101984.91;5010694;28;20045;-77
2021/05/30 03:00:56;;;;;;;4.63;3.80;;;;;;;4.46;97.23;102000.75;5011490;28;20037;-77
2021/05/30 03:03:22;;;;;;;5.70;3.90;;;;;;;4.38;96.27;101999.69;4982498;28;20049;-77
2021/05/30 03:05:49;;;;;;;6.03;4.00;;;;;;;4.39;96.92;101997.94;4981439;28;20045;-77
2021/05/30 03:08:16;;;;;;;6.20;4.20;;;;;;;4.35;96.97;101983.88;5030584;28;20049;-77
2021/05/30 03:10:43;;;;;;;5.57;3.70;;;;;;;4.26;96.76;101996.72;4981820;28;20045;-77
2021/05/30 03:13:09;;;;;;;6.53;4.70;;;;;;;4.31;96.62;102002.97;4982604;28;20045;-77
2021/05/30 03:15:38;;;;;;;6.10;3.83;;;;;;;4.21;97.00;101999.22;4997261;28;20635;-77
2021/05/30 03:18:06;;;;;;;6.30;3.97;;;;;;;4.37;97.92;101999.59;5014548;28;20087;-77
2021/05/30 03:20:33;;;;;;;6.40;4.60;;;;;;;4.35;96.76;102004.81;4998331;28;20052;-77
2021/05/30 03:22:59;;;;;;;4.83;3.93;;;;;;;4.35;97.42;102002.19;5006857;28;20041;-77
2021/05/30 03:25:26;;;;;;;6.30;4.23;;;;;;;4.33;96.27;101998.66;4982513;28;20048;-77
2021/05/30 03:27:53;;;;;;;7.33;5.30;;;;;;;4.34;97.17;101997.81;4997511;28;20485;-77
2021/05/30 03:30:20;;;;;;;5.73;3.73;;;;;;;4.42;97.79;101990.16;4983435;28;20037;-78
2021/05/30 03:32:46;;;;;;;5.47;3.97;;;;;;;4.39;98.83;101990.97;4998697;28;20433;-77
2021/05/30 03:35:13;;;;;;;7.23;4.30;;;;;;;4.38;97.84;101996.19;4997830;28;20037;-78
2021/05/30 03:37:40;;;;;;;4.97;3.87;;;;;;;4.32;98.80;102002.13;4981676;28;20034;-77
2021/05/30 03:40:25;;;;;;;8.57;4.43;;;;;;;4.44;98.55;102002.44;4986558;28;20052;-77
2021/05/30 03:42:53;;;;;;;5.85;4.30;;;;;;;4.30;97.02;102001.19;4984986;28;20053;-78
2021/05/30 03:45:20;;;;;;;8.37;4.43;;;;;;;4.33;98.11;102001.28;4994246;28;20043;-79
2021/05/30 03:47:47;;;;;;;6.87;3.83;;;;;;;4.37;98.61;102005.75;5010580;28;20042;-76
2021/05/30 03:50:14;;;;;;;5.97;4.83;;;;;;;4.47;98.64;102004.25;4999382;28;20095;-77
2021/05/30 03:52:41;;;;;;;10.53;5.00;;;;;;;4.50;98.46;102002.59;4997272;28;20049;-77
2021/05/30 03:55:08;;;;;;;7.20;4.47;;;;;;;4.50;98.49;102004.34;4981566;28;20068;-77
2021/05/30 03:57:35;;;;;;;6.90;3.97;;;;;;;4.49;98.38;101998.22;5089399;23;20441;-75
2021/05/30 04:00:04;;;;;;;6.60;3.70;;;;;;;4.48;98.41;102000.78;5032276;28;20033;-75
2021/05/30 04:02:31;;;;;;;6.07;4.20;;;;;;;4.53;98.68;102005.28;5027636;28;20049;-76
2021/05/30 04:04:57;;;;;;;7.53;4.77;;;;;;;4.59;99.72;102004.56;5005231;28;20125;-76
2021/05/30 04:07:24;;;;;;;7.00;4.53;;;;;;;4.62;99.84;101999.38;4988737;28;20045;-75
2021/05/30 04:09:51;;;;;;;6.10;4.27;;;;;;;4.59;98.76;102001.94;5028544;28;20065;-77
2021/05/30 04:12:17;;;;;;;5.50;4.23;;;;;;;4.70;99.44;102007.44;5020843;28;20418;-76
2021/05/30 04:14:44;;;;;;;6.03;4.47;;;;;;;4.64;99.69;102002.97;4995159;28;20046;-74
2021/05/30 04:17:11;;;;;;;5.60;4.37;;;;;;;4.71;99.61;102002.28;5009732;28;20054;-77
2021/05/30 04:19:37;;;;;;;7.27;4.27;;;;;;;4.77;99.40;102006.75;5010651;28;20048;-77
2021/05/30 04:22:04;;;;;;;5.70;4.03;;;;;;;4.71;99.97;101999.66;5010294;28;20042;-76
2021/05/30 04:24:31;;;;;;;6.90;5.70;;;;;;;4.74;100.00;102004.94;5022581;28;20576;-77
2021/05/30 04:26:57;;;;;;;6.00;4.23;;;;;;;4.83;100.00;102008.66;5007089;28;20096;-75
2021/05/30 04:29:24;;;;;;;5.00;3.73;;;;;;;4.84;100.00;102010.41;5022554;28;20038;-78
2021/05/30 04:31:51;;;;;;;6.07;4.20;;;;;;;4.97;100.00;102008.13;5002768;28;20533;-79
2021/05/30 04:34:17;;;;;;;9.77;4.60;;;;;;;4.96;100.00;102016.84;5010421;28;20052;-75
2021/05/30 04:36:44;;;;;;;6.23;3.87;;;;;;;4.98;100.00;102015.16;5009143;28;20045;-76
2021/05/30 04:39:11;;;;;;;6.63;4.90;;;;;;;5.02;100.00;102016.09;4991797;28;20046;-75
2021/05/30 04:41:37;;;;;;;6.07;4.07;;;;;;;5.09;100.00;102016.28;5009688;28;20438;-76
2021/05/30 04:44:04;;;;;;;6.17;4.00;;;;;;;5.12;100.00;102018.06;5005657;28;20400;-76
2021/05/30 04:46:31;;;;;;;5.93;3.90;;;;;;;5.17;100.00;102023.44;5007775;28;20045;-75
2021/05/30 04:48:58;;;;;;;5.00;3.90;;;;;;;5.30;100.00;102020.25;5008557;28;20074;-75
2021/05/30 04:51:24;;;;;;;6.77;4.03;;;;;;;5.35;100.00;102024.72;5007820;28;20045;-74
2021/05/30 04:53:54;;;;;;;5.57;3.90;;;;;;;5.41;100.00;102021.38;5009222;28;20531;-75
2021/05/30 04:56:22;;;;;;;6.73;4.53;;;;;;;5.81;100.00;102025.75;4992036;28;20053;-75
2021/05/30 04:58:49;;;;;;;5.37;3.93;;;;;;;6.21;99.77;102016.06;4996024;28;20042;-75
2021/05/30 05:01:15;;;;;;;8.43;4.63;;;;;;;6.35;98.01;102018.97;5013553;28;20042;-76
2021/05/30 05:03:42;;;;;;;6.97;3.97;;;;;;;6.40;98.67;102020.81;4992476;28;20506;-76
2021/05/30 05:06:09;;;;;;;8.33;4.93;;;;;;;6.37;99.96;102014.59;5009888;28;20038;-75
2021/05/30 05:08:36;;;;;;;6.27;3.60;;;;;;;6.69;100.00;102016.06;5016019;28;20085;-79
2021/05/30 05:11:03;;;;;;;6.00;3.83;;;;;;;7.07;96.84;102021.09;4998220;28;20075;-75
2021/05/30 05:13:29;;;;;;;5.03;4.03;;;;;;;7.20;96.49;102014.25;5038002;28;20109;-75
2021/05/30 05:15:56;;;;;;;5.37;3.80;;;;;;;7.08;96.81;102014.97;5011339;28;20054;-78
2021/05/30 05:18:25;;;;;;;5.87;4.43;;;;;;;7.08;98.23;102021.97;5002905;28;20451;-76
2021/05/30 05:20:51;;;;;;;6.30;4.30;;;;;;;7.15;99.95;102022.09;4994463;28;20045;-75
2021/05/30 05:23:23;;;;;;;6.83;3.97;;;;;;;7.14;100.00;102016.78;5008815;28;20100;-79
2021/05/30 05:25:51;;;;;;;6.87;5.03;;;;;;;7.19;100.00;102017.75;5003687;28;20499;-75
2021/05/30 05:28:18;;;;;;;7.13;4.03;;;;;;;7.30;100.00;102013.53;5007735;28;20030;-75
2021/05/30 05:30:44;;;;;;;6.17;3.97;;;;;;;7.33;100.00;102014.47;5008650;28;20040;-79
2021/05/30 05:33:11;;;;;;;6.83;4.53;;;;;;;7.39;100.00;102004.88;4988321;28;20495;-77
2021/05/30 05:35:38;;;;;;;14.13;5.10;;;;;;;7.54;99.21;102003.34;4988125;28;20104;-75
2021/05/30 05:38:04;;;;;;;5.23;3.63;;;;;;;7.82;96.75;102009.88;5010498;28;20045;-75
2021/05/30 05:40:31;;;;;;;5.30;3.40;;;;;;;7.83;96.89;102008.13;5008471;28;20040;-76
2021/05/30 05:42:58;;;;;;;5.80;3.97;;;;;;;8.26;95.42;102009.50;5007968;28;20386;-75
2021/05/30 05:45:25;;;;;;;5.40;2.97;;;;;;;9.48;84.74;102013.13;5018163;28;20495;-76
2021/05/30 05:47:52;;;;;;;6.00;3.30;;;;;;;10.09;82.37;102007.25;5004215;28;20047;-75
2021/05/30 05:50:20;;;;;;;6.10;2.97;;;;;;;10.41;79.63;102002.06;4994933;28;20065;-75
2021/05/30 05:52:47;;;;;;;3.92;3.00;;;;;;;11.94;75.44;101999.22;4989987;28;20054;-79
2021/05/30 05:55:14;;;;;;;6.20;3.33;;;;;;;14.41;59.08;102001.25;5000402;28;20038;-78
2021/05/30 05:57:42;;;;;;;4.57;3.50;;;;;;;15.19;57.31;101996.44;4987206;28;20593;-77
2021/05/30 06:00:13;;;;;;;4.60;3.00;;;;;;;15.24;56.97;101995.47;5022256;28;20037;-77
2021/05/30 06:02:40;;;;;;;6.05;2.53;;;;;;;15.63;57.48;102004.50;5024385;28;20046;-78
2021/05/30 06:05:07;;;;;;;3.47;2.55;;;;;;;16.15;52.25;102006.09;5009565;28;20529;-76
2021/05/30 06:07:34;;;;;;;3.03;2.10;;;;;;;16.27;56.03;101998.69;4990759;28;20064;-79
2021/05/30 06:10:00;;;;;;;5.43;2.35;;;;;;;15.98;52.60;102002.00;4992238;28;20510;-76
2021/05/30 06:12:27;;;;;;;6.35;3.25;;;;;;;15.93;54.51;102003.00;5008221;28;20045;-76
2021/05/30 06:14:54;;;;;;;2.83;2.22;;;;;;;15.71;54.81;102007.88;5023017;28;20095;-79
2021/05/30 06:17:22;;;;;;;3.80;2.45;;;;;;;15.61;55.66;101999.22;4994312;28;20042;-78
2021/05/30 06:19:48;;;;;;;4.18;2.63;;;;;;;15.41;53.77;102009.34;5002224;28;20042;-76
2021/05/30 06:22:17;;;;;;;4.05;2.40;;;;;;;15.39;51.94;102000.53;5006707;28;20091;-76
2021/05/30 06:24:44;;;;;;;4.00;2.20;;;;;;;15.34;53.98;102007.72;4990448;28;20050;-76
2021/05/30 06:27:11;;;;;;;3.95;2.30;;;;;;;15.55;54.15;102009.94;4994275;28;20396;-77
2021/05/30 06:29:38;;;;;;;4.85;2.47;;;;;;;15.75;54.16;102006.94;5028003;28;20038;-76
2021/05/30 06:32:05;;;;;;;3.40;2.63;;;;;;;15.90;54.99;102011.06;4991177;28;20483;-78
2021/05/30 06:34:32;;;;;;;3.30;2.40;;;;;;;16.15;51.55;102012.31;5014118;28;20703;-76
2021/05/30 06:36:59;;;;;;;6.13;2.28;;;;;;;16.19;48.91;102013.97;4993049;28;20041;-78
2021/05/30 06:39:28;;;;;;;3.65;2.15;;;;;;;15.80;47.46;102012.16;4999687;28;20046;-76
2021/05/30 06:41:55;;;;;;;3.63;2.42;;;;;;;15.82;49.11;102013.03;4989402;28;20080;-79
2021/05/30 06:44:22;;;;;;;4.40;1.90;;;;;;;15.82;46.16;102015.69;4987573;28;20806;-76
2021/05/30 06:46:48;;;;;;;3.15;2.30;;;;;;;15.55;47.73;102007.28;5024848;28;20049;-78
2021/05/30 06:49:15;;;;;;;3.22;1.83;;;;;;;15.95;48.22;102002.06;5000671;28;20034;-78
2021/05/30 06:51:42;;;;;;;6.95;2.40;;;;;;;15.88;45.22;102013.75;4987755;28;20038;-76
2021/05/30 06:54:09;;;;;;;4.75;2.30;;;;;;;15.94;45.87;102020.75;5007469;28;20057;-81
2021/05/30 06:56:37;;;;;;;3.33;2.20;;;;;;;16.23;47.46;102017.47;5002398;28;20041;-76
2021/05/30 06:59:03;;;;;;;3.95;2.08;;;;;;;16.30;45.60;102016.41;5003237;28;20396;-76
2021/05/30 07:01:30;;;;;;;6.43;2.33;;;;;;;16.35;48.14;102024.31;4985669;28;20043;-76
2021/05/30 07:03:57;;;;;;;3.10;2.35;;;;;;;16.52;45.77;102019.47;4990700;28;20042;-78
2021/05/30 07:06:24;;;;;;;2.83;2.10;;;;;;;16.14;43.23;102014.97;5026133;28;20450;-77
2021/05/30 07:08:50;;;;;;;3.70;1.52;;;;;;;16.58;45.04;102016.66;5022795;28;20045;-76
2021/05/30 07:11:17;;;;;;;2.78;1.80;;;;;;;16.08;41.66;102024.00;5007605;28;20034;-76
2021/05/30 07:13:44;;;;;;;3.33;2.00;;;;;;;16.36;45.16;102013.59;5014282;28;20045;-78
2021/05/30 07:16:10;;;;;;;5.10;2.00;;;;;;;16.55;45.78;102022.03;5009962;28;20046;-77
2021/05/30 07:18:37;;;;;;;4.50;2.35;;;;;;;16.50;41.15;102026.63;5024648;28;20671;-78
2021/05/30 07:21:04;;;;;;;1.92;1.73;;;;;;;16.37;40.23;102033.13;5001773;28;20034;-79
2021/05/30 07:23:31;;;;;;;3.67;2.20;;;;;;;16.31;41.59;102036.81;4992992;28;20050;-77
2021/05/30 07:25:57;;;;;;;4.00;2.45;;;;;;;16.26;41.98;102026.25;4989093;28;20038;-81
2021/05/30 07:28:24;;;;;;;3.22;2.15;;;;;;;16.35;40.01;102027.84;5009509;28;20054;-77
2021/05/30 07:30:51;;;;;;;4.72;2.22;;;;;;;16.41;42.10;102029.50;5005921;28;20449;-77
2021/05/30 07:33:20;;;;;;;5.05;1.90;;;;;;;16.56;39.92;102030.03;5021180;28;20030;-78
2021/05/30 07:35:47;;;;;;;4.40;2.00;;;;;;;16.65;40.54;102022.69;4998249;28;20049;-77
2021/05/30 07:38:15;;;;;;;4.45;2.38;;;;;;;16.56;42.83;102032.69;4992681;28;20045;-77
2021/05/30 07:40:42;;;;;;;2.30;1.60;;;;;;;16.64;41.09;102035.16;5024784;28;20057;-78
2021/05/30 07:43:08;;;;;;;3.25;2.17;;;;;;;16.86;40.51;102031.09;5022946;28;20523;-80
2021/05/30 07:45:35;;;;;;;3.20;2.17;;;;;;;16.88;40.31;102034.59;5001029;28;20054;-76
2021/05/30 07:48:02;;;;;;;4.10;2.25;;;;;;;17.23;41.38;102035.50;4980942;28;20046;-77
2021/05/30 07:50:29;;;;;;;3.67;1.83;;;;;;;17.28;40.91;102038.06;4988345;28;20092;-77
2021/05/30 07:52:55;;;;;;;2.63;1.95;;;;;;;17.21;42.87;102037.34;4999472;28;20073;-76
2021/05/30 07:55:22;;;;;;;3.17;1.70;;;;;;;17.14;38.83;102033.94;5009319;28;20230;-75
2021/05/30 07:57:49;;;;;;;3.70;2.28;;;;;;;17.29;41.13;102037.13;5001076;28;20592;-81
2021/05/30 08:00:17;;;;;;;2.50;2.00;;;;;;;17.54;42.41;102030.22;5008953;28;20449;-77
2021/05/30 08:02:44;;;;;;;4.30;1.80;;;;;;;16.98;39.86;102031.69;4990424;28;20096;-77
2021/05/30 08:05:16;;;;;;;3.97;2.22;;;;;;;17.04;39.76;102029.75;5017741;28;20115;-76
2021/05/30 08:07:43;;;;;;;3.88;2.20;;;;;;;17.15;38.58;102034.81;4982388;28;20061;-78
2021/05/30 08:10:10;;;;;;;3.80;2.15;;;;;;;17.55;41.17;102037.31;5003012;28;20034;-76
2021/05/30 08:12:37;;;;;;;3.40;1.90;;;;;;;17.81;40.65;102023.25;4986823;28;20041;-76
2021/05/30 08:15:06;;;;;;;5.15;2.38;;;;;;;17.98;37.69;102028.97;5001771;28;20050;-77
2021/05/30 08:17:33;;;;;;;3.38;1.80;;;;;;;18.02;40.36;102027.09;5019452;28;20108;-77
2021/05/30 08:20:01;;;;;;;4.57;2.20;;;;;;;18.10;40.05;102030.41;5008622;28;20045;-76
2021/05/30 08:22:27;;;;;;;4.22;2.53;;;;;;;17.76;39.66;102033.22;5019328;28;20103;-78
2021/05/30 08:24:54;;;;;;;2.90;1.98;;;;;;;17.99;42.32;102030.75;5005864;28;20514;-76
2021/05/30 08:27:21;;;;;;;2.92;1.90;;;;;;;18.03;40.22;102023.50;5012734;28;20105;-76
2021/05/30 08:29:47;;;;;;;3.75;2.20;;;;;;;17.95;38.84;102030.88;5038587;28;20048;-79
2021/05/30 08:32:15;;;;;;;3.40;2.00;;;;;;;17.78;40.22;102030.47;4987994;28;20038;-76
2021/05/30 08:34:41;;;;;;;3.50;2.17;;;;;;;17.34;41.87;102025.41;4995299;28;20037;-75
2021/05/30 08:37:08;;;;;;;2.78;2.17;;;;;;;17.71;42.33;102032.44;5002484;28;20125;-78
2021/05/30 08:39:35;;;;;;;3.78;2.30;;;;;;;17.86;42.02;102026.66;4991113;28;20046;-77
2021/05/30 08:42:02;;;;;;;3.90;2.35;;;;;;;17.62;40.06;102036.22;5002877;28;20038;-78
2021/05/30 08:44:29;;;;;;;6.03;2.50;;;;;;;17.92;43.69;102029.16;4971329;28;20104;-76
2021/05/30 08:46:56;;;;;;;5.20;2.20;;;;;;;17.79;41.72;102033.09;4955496;28;20050;-77
2021/05/30 08:49:22;;;;;;;2.38;2.00;;;;;;;18.31;42.49;102036.03;4972810;28;20054;-79
2021/05/30 08:51:49;;;;;;;4.05;1.95;;;;;;;17.99;40.76;102033.44;4988668;28;20579;-77
2021/05/30 08:54:18;;;;;;;4.13;2.08;;;;;;;18.30;41.16;102032.47;4986295;28;20455;-76
2021/05/30 08:56:47;;;;;;;3.58;2.25;;;;;;;18.65;41.90;102027.81;5007253;28;20050;-78
2021/05/30 08:59:27;;;;;;;3.63;2.35;;;;;;;18.72;42.20;102035.63;5008768;28;20042;-77
2021/05/30 09:01:54;;;;;;;4.22;2.10;;;;;;;19.09;40.64;102026.41;4989121;28;20046;-77
2021/05/30 09:04:33;;;;;;;4.15;2.40;;;;;;;18.96;38.69;102030.41;5007527;28;20112;-77
2021/05/30 09:07:00;;;;;;;3.95;2.40;;;;;;;19.06;39.21;102037.19;5007811;28;20115;-77
2021/05/30 09:09:38;;;;;;;4.10;2.30;;;;;;;19.22;41.63;102034.88;4991576;28;20066;-77
2021/05/30 09:12:10;;;;;;;4.22;2.33;;;;;;;18.89;39.30;102034.19;5023673;28;20046;-77
2021/05/30 09:14:45;;;;;;;3.17;2.38;;;;;;;19.00;37.90;102038.28;5015531;28;20099;-77
2021/05/30 09:17:12;;;;;;;4.65;2.15;;;;;;;18.59;37.34;102038.75;5011625;28;20235;-77
2021/05/30 09:19:43;;;;;;;2.70;2.05;;;;;;;18.67;40.21;102042.09;5006024;28;20041;-78
2021/05/30 09:22:26;;;;;;;3.03;2.10;;;;;;;18.59;40.90;102036.94;5013027;28;20037;-76
2021/05/30 09:25:10;;;;;;;4.75;2.13;;;;;;;18.69;38.41;102035.75;5003170;28;20128;-76
2021/05/30 09:27:48;;;;;;;3.05;1.90;;;;;;;18.69;39.11;102025.03;4999874;28;20446;-77
2021/05/30 09:30:38;;;;;;;3.63;1.90;;;;;;;18.37;37.39;102018.00;5030563;28;20068;-77
2021/05/30 09:33:23;;;;;;;13.23;2.53;;;;;;;19.11;39.58;102028.09;5013948;28;20041;-77
2021/05/30 09:35:54;;;;;;;3.95;2.30;;;;;;;19.57;41.29;102023.78;4991641;28;20049;-77
2021/05/30 09:38:29;;;;;;;2.97;2.22;;;;;;;19.50;39.21;102029.41;4997522;28;20096;-77
2021/05/30 09:41:02;;;;;;;5.63;2.40;;;;;;;19.63;37.37;102023.59;5026413;28;20056;-79
2021/05/30 09:43:37;;;;;;;2.75;2.00;;;;;;;19.24;37.24;102022.28;4991738;28;20109;-76
2021/05/30 09:46:09;;;;;;;4.68;2.10;;;;;;;19.10;38.23;102020.09;5028128;28;20038;-76
2021/05/30 09:48:58;;;;;;;4.70;2.20;;;;;;;18.67;37.53;102026.03;5020001;28;20049;-76
2021/05/30 09:51:38;;;;;;;5.35;2.35;;;;;;;18.96;37.11;102028.59;4991177;28;20037;-76
2021/05/30 09:54:13;;;;;;;5.28;1.95;;;;;;;19.03;36.60;102019.44;5003294;28;20042;-77
2021/05/30 09:56:44;;;;;;;6.40;2.30;;;;;;;19.37;38.41;102029.84;5006401;28;20049;-77
2021/05/30 09:59:13;;;;;;;3.45;2.38;;;;;;;19.31;36.66;102013.97;5004617;28;20038;-81
2021/05/30 10:01:49;;;;;;;3.60;2.30;;;;;;;19.22;37.44;102014.31;5003695;28;20037;-78
2021/05/30 10:04:17;;;;;;;4.07;2.20;;;;;;;19.37;36.89;102013.78;5022484;28;20046;-76
2021/05/30 10:06:45;;;;;;;2.70;2.38;;;;;;;19.34;37.36;102013.03;4999131;28;20046;-79
2021/05/30 10:09:12;;;;;;;2.80;2.25;;;;;;;19.00;37.20;102029.34;5014594;28;20046;-77
2021/05/30 10:11:39;;;;;;;3.85;2.22;;;;;;;19.06;38.01;102021.13;5000764;28;20049;-80
2021/05/30 10:14:06;;;;;;;3.05;2.20;;;;;;;19.41;38.37;102014.53;5005269;28;20037;-76
2021/05/30 10:16:34;;;;;;;4.28;2.28;;;;;;;19.73;38.38;102008.03;4989447;28;20095;-78
2021/05/30 10:19:10;;;;;;;2.90;2.00;;;;;;;20.02;37.36;102011.44;5006856;28;20737;-77
2021/05/30 10:21:44;;;;;;;3.95;2.30;;;;;;;19.99;35.95;102007.03;4989279;28;20034;-76
2021/05/30 10:24:11;;;;;;;4.70;2.20;;;;;;;20.23;37.94;102010.59;5007998;28;20138;-76
2021/05/30 10:26:44;;;;;;;2.78;1.92;;;;;;;20.36;37.24;102005.63;4990825;28;20049;-76
2021/05/30 10:29:17;;;;;;;4.03;2.28;;;;;;;19.91;37.58;102003.78;5004088;28;20042;-81
2021/05/30 10:31:45;;;;;;;3.20;2.08;;;;;;;20.05;37.28;102017.53;4986841;28;20050;-80
2021/05/30 10:34:14;;;;;;;4.97;2.63;;;;;;;20.24;37.03;102010.53;5018673;28;20044;-77
2021/05/30 10:37:22;;;;;;;4.65;2.17;;;;;;;20.64;37.00;102010.78;4996908;28;20050;-77
2021/05/30 10:39:49;;;;;;;3.25;2.50;;;;;;;19.66;35.42;101998.47;5003929;28;20054;-77
2021/05/30 10:42:16;;;;;;;4.55;2.10;;;;;;;19.55;35.85;102006.88;5021558;28;20504;-79
2021/05/30 10:44:56;;;;;;;3.15;2.10;;;;;;;19.57;38.77;101999.66;4998660;28;20053;-76
2021/05/30 10:47:45;;;;;;;3.65;2.10;;;;;;;19.99;39.69;102003.50;5013142;28;20120;-77
2021/05/30 10:50:15;;;;;;;4.25;2.30;;;;;;;19.99;35.83;102004.34;5023287;28;20037;-77
2021/05/30 10:52:52;;;;;;;3.65;2.28;;;;;;;20.41;38.26;102004.47;5006296;28;20030;-76
2021/05/30 10:55:26;;;;;;;3.42;2.15;;;;;;;20.48;35.54;101989.91;5097341;22;20489;-84
2021/05/30 10:57:55;;;;;;;4.93;2.30;;;;;;;20.48;35.89;101987.22;5026585;28;20056;-84
2021/05/30 11:00:21;;;;;;;3.85;1.98;;;;;;;20.39;34.95;101994.75;5027183;28;20047;-83
2021/05/30 11:03:02;;;;;;;2.97;2.05;;;;;;;20.50;37.76;101989.84;5025321;28;20037;-84
2021/05/30 11:05:45;;;;;;;4.93;2.45;;;;;;;20.72;37.82;101988.03;5019624;28;20053;-83
2021/05/30 11:08:31;;;;;;;3.50;2.40;;;;;;;20.50;37.23;101989.84;5013009;28;20045;-85
2021/05/30 11:11:24;;;;;;;2.67;2.10;;;;;;;20.18;37.71;101983.94;5049308;28;20049;-81
2021/05/30 11:13:54;;;;;;;3.30;2.28;;;;;;;20.52;37.66;101991.56;5046217;28;20057;-85
2021/05/30 11:16:24;;;;;;;3.53;2.42;;;;;;;20.70;35.54;101994.41;5013166;28;20033;-82
2021/05/30 11:19:09;;;;;;;5.22;2.40;;;;;;;21.02;35.07;101988.56;5028657;28;20096;-83
2021/05/30 11:21:46;;;;;;;4.80;2.90;;;;;;;20.93;36.47;101975.50;5033501;28;20046;-83
2021/05/30 11:24:13;;;;;;;4.93;2.65;;;;;;;20.71;35.80;101983.59;5036716;28;20051;-82
2021/05/30 11:27:05;;;;;;;3.10;2.10;;;;;;;20.23;38.13;101970.34;5010076;28;20156;-82
2021/05/30 11:29:32;;;;;;;3.13;2.30;;;;;;;20.38;36.90;101974.22;5040222;28;20504;-83
2021/05/30 11:32:01;;;;;;;2.97;2.42;;;;;;;20.33;35.50;101978.88;4998171;28;20601;-84
2021/05/30 11:34:29;;;;;;;4.03;2.20;;;;;;;19.95;36.78;101979.47;5006263;28;20073;-82
2021/05/30 11:37:07;;;;;;;3.90;2.75;;;;;;;20.39;36.80;101984.88;5027641;28;20045;-83
2021/05/30 11:39:38;;;;;;;4.65;2.63;;;;;;;20.70;35.73;101968.44;5044643;28;20135;-83